createdAt,value
2023-04-30T00:00:09.698Z,8.70
2023-04-30T00:01:15.771Z,9.35
2023-04-30T00:02:19.193Z,8.32
2023-04-30T00:03:24.768Z,8.90
2023-04-30T00:04:27.969Z,9.18
2023-04-30T00:05:31.952Z,9.15
2023-04-30T00:06:34.930Z,9.05
2023-04-30T00:07:42.577Z,8.60
2023-04-30T00:08:45.838Z,8.80
2023-04-30T00:09:49.605Z,9.00
2023-04-30T00:10:52.865Z,8.65
2023-04-30T00:11:55.967Z,8.90
2023-04-30T00:12:59.092Z,8.73
2023-04-30T00:14:02.109Z,8.88
2023-04-30T00:15:05.858Z,8.82
2023-04-30T00:16:08.851Z,9.27
2023-04-30T00:17:11.815Z,8.35
2023-04-30T00:18:14.852Z,8.88
2023-04-30T00:19:17.819Z,8.95
2023-04-30T00:20:21.010Z,8.90
2023-04-30T00:21:24.079Z,8.93
2023-04-30T00:22:27.216Z,9.02
2023-04-30T00:23:30.347Z,9.10
2023-04-30T00:24:33.450Z,9.20
2023-04-30T00:25:36.417Z,9.25
2023-04-30T00:26:39.472Z,9.27
2023-04-30T00:27:42.661Z,9.38
2023-04-30T00:28:45.618Z,8.95
2023-04-30T00:29:48.680Z,8.85
2023-04-30T00:30:51.616Z,8.77
2023-04-30T00:31:54.604Z,8.52
2023-04-30T00:32:57.720Z,9.05
2023-04-30T00:34:00.733Z,9.18
2023-04-30T00:35:03.964Z,9.15
2023-04-30T00:36:07.042Z,9.23
2023-04-30T00:37:10.049Z,8.70
2023-04-30T00:38:13.034Z,8.65
2023-04-30T00:39:16.693Z,9.23
2023-04-30T00:40:21.091Z,9.68
2023-04-30T00:41:25.748Z,9.70
2023-04-30T00:42:29.458Z,8.50
2023-04-30T00:43:34.329Z,9.23
2023-04-30T00:44:37.384Z,8.40
2023-04-30T00:45:40.452Z,8.63
2023-04-30T00:46:43.748Z,8.13
2023-04-30T00:47:46.948Z,8.18
2023-04-30T00:48:50.353Z,7.68
2023-04-30T00:49:54.058Z,7.82
2023-04-30T00:50:57.387Z,7.47
2023-04-30T00:52:01.414Z,8.02
2023-04-30T00:53:04.933Z,7.85
2023-04-30T00:54:09.459Z,7.70
2023-04-30T00:55:13.224Z,7.22
2023-04-30T00:56:19.258Z,6.85
2023-04-30T00:57:23.540Z,6.78
2023-04-30T00:58:26.798Z,7.72
2023-04-30T00:59:31.618Z,6.72
2023-04-30T01:00:35.007Z,7.13
2023-04-30T01:01:39.302Z,7.22
2023-04-30T01:02:42.548Z,6.80
2023-04-30T01:03:45.986Z,6.53
2023-04-30T01:04:50.385Z,6.47
2023-04-30T01:05:54.271Z,7.20
2023-04-30T01:06:57.384Z,6.65
2023-04-30T01:08:00.451Z,6.10
2023-04-30T01:09:03.986Z,6.82
2023-04-30T01:10:08.447Z,6.57
2023-04-30T01:11:54.817Z,6.55
2023-04-30T01:13:11.297Z,6.30
2023-04-30T01:15:15.389Z,5.63
2023-04-30T01:16:28.711Z,6.38
2023-04-30T01:17:56.480Z,5.53
2023-04-30T01:19:40.629Z,5.30
2023-04-30T01:20:59.212Z,4.72
2023-04-30T01:22:05.653Z,4.57
2023-04-30T01:24:04.744Z,4.25
2023-04-30T01:25:40.081Z,4.15
2023-04-30T01:27:15.992Z,5.05
2023-04-30T01:28:20.678Z,3.65
2023-04-30T01:29:27.185Z,4.30
2023-04-30T01:30:32.614Z,4.40
2023-04-30T01:31:35.695Z,4.18
2023-04-30T01:32:38.816Z,4.30
2023-04-30T01:33:42.220Z,4.10
2023-04-30T01:34:45.664Z,4.38
2023-04-30T01:35:54.411Z,4.38
2023-04-30T01:37:02.737Z,4.82
2023-04-30T01:38:20.623Z,4.80
2023-04-30T01:39:29.257Z,4.65
2023-04-30T01:40:47.601Z,4.53
2023-04-30T01:42:26.690Z,4.57
2023-04-30T01:43:53.276Z,5.03
2023-04-30T01:45:32.172Z,4.82
2023-04-30T01:46:35.563Z,4.90
2023-04-30T01:48:01.848Z,4.97
2023-04-30T01:49:22.145Z,4.63
2023-04-30T01:50:51.001Z,5.85
2023-04-30T01:52:09.527Z,6.72
2023-04-30T01:53:30.459Z,6.75
2023-04-30T01:54:49.090Z,6.22
2023-04-30T01:56:02.355Z,6.95
2023-04-30T01:57:11.710Z,6.20
2023-04-30T01:58:16.669Z,7.00
2023-04-30T01:59:19.880Z,7.38
2023-04-30T02:00:23.091Z,7.50
2023-04-30T02:01:32.153Z,7.75
2023-04-30T02:02:35.783Z,7.22
2023-04-30T02:03:39.011Z,8.70
2023-04-30T02:04:42.315Z,7.72
2023-04-30T02:05:45.673Z,8.90
2023-04-30T02:06:48.940Z,8.15
2023-04-30T02:07:53.437Z,9.15
2023-04-30T02:09:03.056Z,8.95
2023-04-30T02:10:08.526Z,8.02
2023-04-30T02:11:11.561Z,9.93
2023-04-30T02:12:14.945Z,9.05
2023-04-30T02:13:17.931Z,9.00
2023-04-30T02:14:21.104Z,8.27
2023-04-30T02:15:28.995Z,8.52
2023-04-30T02:16:32.076Z,8.70
2023-04-30T02:17:35.760Z,9.30
2023-04-30T02:18:39.063Z,8.48
2023-04-30T02:19:42.093Z,9.30
2023-04-30T02:20:45.130Z,8.63
2023-04-30T02:21:48.218Z,9.60
2023-04-30T02:22:52.911Z,8.90
2023-04-30T02:23:56.037Z,8.57
2023-04-30T02:24:59.005Z,7.63
2023-04-30T02:26:03.117Z,8.35
2023-04-30T02:27:06.399Z,8.00
2023-04-30T02:28:09.357Z,8.57
2023-04-30T02:29:12.459Z,7.82
2023-04-30T02:30:15.447Z,8.07
2023-04-30T02:31:18.778Z,7.13
2023-04-30T02:32:22.239Z,7.47
2023-04-30T02:33:25.881Z,7.78
2023-04-30T02:34:29.161Z,7.45
2023-04-30T02:35:32.526Z,7.20
2023-04-30T02:36:36.721Z,7.63
2023-04-30T02:37:39.897Z,7.28
2023-04-30T02:38:42.987Z,7.85
2023-04-30T02:39:46.266Z,7.32
2023-04-30T02:40:49.134Z,8.02
2023-04-30T02:41:55.498Z,7.60
2023-04-30T02:42:59.045Z,7.95
2023-04-30T02:44:03.378Z,7.60
2023-04-30T02:45:07.110Z,7.75
2023-04-30T02:46:10.403Z,8.15
2023-04-30T02:47:16.103Z,7.75
2023-04-30T02:48:19.163Z,7.82
2023-04-30T02:49:22.041Z,7.82
2023-04-30T02:50:25.194Z,8.00
2023-04-30T02:51:28.503Z,8.30
2023-04-30T02:52:32.081Z,7.47
2023-04-30T02:53:35.510Z,7.88
2023-04-30T02:54:38.451Z,7.57
2023-04-30T02:55:41.698Z,7.65
2023-04-30T02:56:46.337Z,8.50
2023-04-30T02:57:49.455Z,8.70
2023-04-30T02:58:52.718Z,8.43
2023-04-30T02:59:55.856Z,7.85
2023-04-30T03:00:59.927Z,7.50
2023-04-30T03:02:03.189Z,8.15
2023-04-30T03:03:07.028Z,7.68
2023-04-30T03:04:10.160Z,7.90
2023-04-30T03:05:15.167Z,8.00
2023-04-30T03:06:18.300Z,8.32
2023-04-30T03:07:21.474Z,8.77
2023-04-30T03:08:24.567Z,8.13
2023-04-30T03:09:27.618Z,7.38
2023-04-30T03:10:30.734Z,7.90
2023-04-30T03:11:37.546Z,8.73
2023-04-30T03:12:41.167Z,7.80
2023-04-30T03:13:44.278Z,8.30
2023-04-30T03:14:47.396Z,8.98
2023-04-30T03:15:51.014Z,8.10
2023-04-30T03:16:54.176Z,7.95
2023-04-30T03:17:57.172Z,7.85
2023-04-30T03:19:00.404Z,7.70
2023-04-30T03:20:03.689Z,7.53
2023-04-30T03:21:06.680Z,7.63
2023-04-30T03:22:11.391Z,7.32
2023-04-30T03:23:14.592Z,7.78
2023-04-30T03:24:18.033Z,8.43
2023-04-30T03:25:21.051Z,7.13
2023-04-30T03:26:24.177Z,7.63
2023-04-30T03:27:27.252Z,7.35
2023-04-30T03:28:30.619Z,7.00
2023-04-30T03:29:33.664Z,7.32
2023-04-30T03:30:36.885Z,6.35
2023-04-30T03:31:39.932Z,7.38
2023-04-30T03:32:43.029Z,7.05
2023-04-30T03:33:46.145Z,7.00
2023-04-30T03:34:50.930Z,7.38
2023-04-30T03:35:54.020Z,6.50
2023-04-30T03:36:59.626Z,6.63
2023-04-30T03:38:02.936Z,6.65
2023-04-30T03:39:07.839Z,7.07
2023-04-30T03:40:13.275Z,7.00
2023-04-30T03:41:16.299Z,6.43
2023-04-30T03:42:19.254Z,6.90
2023-04-30T03:43:22.699Z,7.15
2023-04-30T03:44:26.034Z,7.18
2023-04-30T03:45:29.284Z,6.72
2023-04-30T03:46:32.292Z,6.88
2023-04-30T03:47:37.339Z,7.13
2023-04-30T03:48:40.431Z,6.90
2023-04-30T03:49:43.481Z,6.75
2023-04-30T03:50:46.665Z,6.55
2023-04-30T03:51:49.793Z,6.63
2023-04-30T03:52:52.717Z,6.20
2023-04-30T03:53:56.085Z,6.75
2023-04-30T03:54:59.088Z,5.90
2023-04-30T03:56:03.862Z,6.25
2023-04-30T03:57:10.745Z,6.00
2023-04-30T03:58:14.917Z,6.72
2023-04-30T03:59:18.493Z,5.93
2023-04-30T04:00:22.019Z,6.10
2023-04-30T04:01:30.779Z,5.78
2023-04-30T04:02:34.317Z,6.05
2023-04-30T04:03:38.116Z,6.03
2023-04-30T04:04:41.598Z,5.40
2023-04-30T04:05:45.052Z,5.80
2023-04-30T04:06:48.197Z,6.22
2023-04-30T04:07:51.295Z,5.60
2023-04-30T04:08:54.519Z,6.40
2023-04-30T04:09:58.928Z,5.80
2023-04-30T04:11:02.877Z,6.30
2023-04-30T04:12:06.562Z,6.20
2023-04-30T04:13:10.049Z,6.22
2023-04-30T04:14:13.321Z,5.50
2023-04-30T04:15:16.385Z,6.18
2023-04-30T04:16:19.419Z,6.78
2023-04-30T04:17:22.673Z,6.28
2023-04-30T04:18:26.188Z,6.85
2023-04-30T04:19:29.234Z,7.15
2023-04-30T04:20:33.598Z,6.10
2023-04-30T04:21:37.312Z,7.20
2023-04-30T04:22:47.944Z,6.68
2023-04-30T04:23:51.349Z,7.32
2023-04-30T04:24:55.374Z,6.10
2023-04-30T04:26:00.363Z,6.85
2023-04-30T04:27:04.166Z,7.32
2023-04-30T04:28:07.314Z,7.20
2023-04-30T04:29:12.314Z,6.78
2023-04-30T04:30:16.157Z,6.50
2023-04-30T04:31:20.511Z,6.60
2023-04-30T04:32:24.775Z,6.35
2023-04-30T04:33:29.582Z,6.93
2023-04-30T04:34:33.698Z,7.10
2023-04-30T04:35:37.242Z,6.93
2023-04-30T04:36:40.406Z,7.13
2023-04-30T04:37:43.679Z,7.00
2023-04-30T04:38:47.114Z,6.57
2023-04-30T04:39:50.581Z,6.68
2023-04-30T04:40:54.501Z,6.05
2023-04-30T04:41:58.458Z,6.95
2023-04-30T04:43:01.939Z,6.80
2023-04-30T04:44:05.753Z,7.13
2023-04-30T04:45:10.041Z,6.78
2023-04-30T04:46:16.553Z,6.50
2023-04-30T04:48:24.884Z,6.40
2023-04-30T04:49:27.889Z,6.93
2023-04-30T04:50:30.955Z,8.02
2023-04-30T04:51:34.994Z,7.85
2023-04-30T04:52:39.175Z,7.70
2023-04-30T04:53:42.198Z,8.75
2023-04-30T04:54:46.557Z,7.63
2023-04-30T04:55:50.169Z,7.55
2023-04-30T04:56:53.220Z,8.48
2023-04-30T04:57:56.669Z,8.63
2023-04-30T04:58:59.990Z,8.45
2023-04-30T05:00:04.209Z,8.20
2023-04-30T05:01:07.468Z,7.75
2023-04-30T05:02:11.271Z,7.80
2023-04-30T05:03:15.108Z,8.88
2023-04-30T05:04:18.429Z,8.23
2023-04-30T05:05:21.891Z,7.97
2023-04-30T05:06:25.955Z,7.90
2023-04-30T05:07:30.022Z,8.35
2023-04-30T05:08:33.418Z,7.70
2023-04-30T05:09:36.643Z,8.52
2023-04-30T05:10:39.639Z,8.85
2023-04-30T05:11:44.753Z,8.88
2023-04-30T05:12:47.829Z,8.60
2023-04-30T05:13:50.971Z,8.20
2023-04-30T05:14:54.054Z,9.88
2023-04-30T05:15:57.275Z,8.43
2023-04-30T05:17:00.328Z,10.00
2023-04-30T05:18:03.866Z,8.50
2023-04-30T05:19:09.656Z,9.63
2023-04-30T05:20:13.772Z,8.70
2023-04-30T05:21:18.803Z,9.27
2023-04-30T05:22:21.941Z,9.85
2023-04-30T05:23:25.036Z,9.52
2023-04-30T05:24:29.995Z,8.63
2023-04-30T05:25:33.068Z,9.48
2023-04-30T05:26:36.260Z,9.48
2023-04-30T05:27:39.191Z,9.60
2023-04-30T05:28:42.323Z,9.35
2023-04-30T05:29:45.371Z,8.73
2023-04-30T05:30:48.610Z,8.88
2023-04-30T05:31:51.774Z,9.18
2023-04-30T05:32:56.888Z,9.30
2023-04-30T05:34:00.037Z,9.20
2023-04-30T05:35:03.144Z,8.77
2023-04-30T05:36:06.654Z,8.77
2023-04-30T05:37:09.733Z,8.90
2023-04-30T05:38:12.765Z,7.88
2023-04-30T05:39:15.825Z,8.65
2023-04-30T05:40:19.322Z,8.05
2023-04-30T05:41:22.478Z,7.45
2023-04-30T05:42:25.829Z,7.47
2023-04-30T05:43:28.930Z,7.43
2023-04-30T05:44:32.097Z,7.93
2023-04-30T05:45:35.183Z,7.30
2023-04-30T05:46:38.435Z,8.23
2023-04-30T05:47:41.721Z,7.45
2023-04-30T05:48:45.625Z,7.63
2023-04-30T05:49:48.833Z,7.80
2023-04-30T05:50:51.868Z,7.38
2023-04-30T05:51:54.992Z,7.13
2023-04-30T05:52:58.199Z,7.45
2023-04-30T05:54:01.898Z,6.28
2023-04-30T05:55:06.140Z,6.32
2023-04-30T05:56:09.287Z,6.15
2023-04-30T05:57:12.408Z,5.53
2023-04-30T05:58:15.627Z,6.20
2023-04-30T05:59:19.593Z,6.10
2023-04-30T06:00:23.423Z,5.70
2023-04-30T06:01:28.907Z,5.68
2023-04-30T06:02:31.934Z,6.53
2023-04-30T06:03:35.089Z,5.65
2023-04-30T06:04:38.147Z,5.35
2023-04-30T06:05:41.884Z,5.65
2023-04-30T06:06:45.324Z,5.47
2023-04-30T06:07:48.738Z,5.80
2023-04-30T06:08:51.973Z,5.32
2023-04-30T06:09:57.274Z,5.00
2023-04-30T06:11:00.671Z,5.50
2023-04-30T06:12:04.158Z,4.18
2023-04-30T06:13:07.549Z,4.35
2023-04-30T06:14:11.252Z,5.13
2023-04-30T06:15:14.366Z,4.10
2023-04-30T06:16:17.619Z,3.90
2023-04-30T06:17:20.966Z,4.15
2023-04-30T06:18:24.141Z,3.92
2023-04-30T06:19:27.211Z,3.78
2023-04-30T06:20:30.397Z,2.90
2023-04-30T06:21:34.090Z,3.10
2023-04-30T06:22:37.477Z,2.67
2023-04-30T06:23:40.805Z,2.88
2023-04-30T06:24:43.809Z,3.08
2023-04-30T06:25:46.970Z,2.35
2023-04-30T06:26:49.918Z,2.13
2023-04-30T06:27:54.249Z,2.55
2023-04-30T06:28:57.519Z,2.47
2023-04-30T06:30:01.168Z,2.97
2023-04-30T06:31:04.600Z,2.38
2023-04-30T06:32:08.538Z,2.80
2023-04-30T06:33:11.881Z,2.40
2023-04-30T06:34:14.958Z,2.10
2023-04-30T06:35:18.920Z,2.70
2023-04-30T06:36:21.979Z,2.15
2023-04-30T06:37:25.416Z,2.70
2023-04-30T06:38:29.627Z,2.42
2023-04-30T06:39:32.680Z,2.63
2023-04-30T06:40:36.040Z,2.40
2023-04-30T06:41:39.052Z,2.17
2023-04-30T06:42:47.597Z,2.47
2023-04-30T06:43:50.978Z,2.40
2023-04-30T06:44:55.587Z,2.35
2023-04-30T06:45:58.745Z,2.65
2023-04-30T06:47:02.675Z,2.80
2023-04-30T06:48:06.035Z,2.60
2023-04-30T06:49:09.464Z,2.47
2023-04-30T06:50:13.058Z,2.72
2023-04-30T06:51:16.309Z,2.90
2023-04-30T06:52:19.425Z,3.00
2023-04-30T06:53:22.537Z,3.13
2023-04-30T06:54:27.190Z,2.85
2023-04-30T06:55:30.347Z,2.55
2023-04-30T06:56:33.632Z,2.33
2023-04-30T06:57:37.654Z,1.70
2023-04-30T06:58:40.806Z,2.20
2023-04-30T06:59:44.343Z,2.35
2023-04-30T07:00:47.384Z,2.42
2023-04-30T07:01:50.482Z,1.98
2023-04-30T07:02:53.671Z,2.15
2023-04-30T07:03:56.913Z,1.63
2023-04-30T07:05:00.094Z,2.08
2023-04-30T07:06:03.867Z,2.20
2023-04-30T07:07:07.681Z,2.22
2023-04-30T07:08:11.163Z,1.92
2023-04-30T07:09:15.641Z,1.77
2023-04-30T07:10:18.982Z,2.42
2023-04-30T07:11:22.480Z,2.55
2023-04-30T07:12:25.716Z,2.47
2023-04-30T07:13:28.725Z,2.53
2023-04-30T07:14:31.949Z,2.70
2023-04-30T07:15:35.348Z,2.20
2023-04-30T07:16:38.551Z,2.50
2023-04-30T07:17:42.063Z,2.42
2023-04-30T07:18:48.792Z,2.33
2023-04-30T07:19:51.910Z,2.25
2023-04-30T07:20:55.561Z,1.80
2023-04-30T07:21:58.834Z,2.38
2023-04-30T07:23:01.889Z,2.30
2023-04-30T07:24:05.591Z,1.95
2023-04-30T07:25:09.618Z,1.88
2023-04-30T07:26:12.957Z,1.95
2023-04-30T07:27:16.319Z,2.20
2023-04-30T07:28:19.324Z,1.63
2023-04-30T07:29:22.534Z,1.63
2023-04-30T07:30:25.725Z,2.28
2023-04-30T07:31:28.901Z,2.17
2023-04-30T07:32:32.016Z,1.73
2023-04-30T07:33:35.163Z,2.00
2023-04-30T07:34:38.555Z,2.05
2023-04-30T07:35:41.756Z,1.98
2023-04-30T07:36:44.730Z,2.08
2023-04-30T07:37:48.097Z,1.80
2023-04-30T07:38:51.119Z,2.35
2023-04-30T07:39:54.472Z,2.05
2023-04-30T07:40:58.376Z,1.98
2023-04-30T07:42:03.338Z,1.90
2023-04-30T07:43:06.567Z,1.70
2023-04-30T07:44:11.758Z,1.98
2023-04-30T07:45:15.247Z,1.58
2023-04-30T07:46:18.916Z,1.80
2023-04-30T07:47:22.049Z,1.67
2023-04-30T07:48:25.206Z,1.60
2023-04-30T07:49:29.218Z,1.45
2023-04-30T07:50:34.177Z,1.60
2023-04-30T07:51:37.537Z,1.48
2023-04-30T07:52:41.765Z,1.67
2023-04-30T07:53:45.562Z,1.90
2023-04-30T07:54:48.721Z,1.30
2023-04-30T07:55:51.815Z,1.20
2023-04-30T07:57:59.676Z,1.80
2023-04-30T07:59:02.669Z,1.95
2023-04-30T08:00:06.872Z,1.55
2023-04-30T08:01:16.397Z,1.65
2023-04-30T08:02:19.695Z,1.45
2023-04-30T08:03:22.816Z,1.88
2023-04-30T08:04:26.267Z,1.55
2023-04-30T08:05:29.692Z,1.85
2023-04-30T08:06:33.064Z,1.95
2023-04-30T08:07:36.340Z,1.63
2023-04-30T08:08:39.759Z,1.60
2023-04-30T08:09:43.096Z,2.05
2023-04-30T08:10:46.313Z,1.83
2023-04-30T08:11:49.411Z,1.90
2023-04-30T08:12:53.443Z,1.58
2023-04-30T08:13:56.790Z,1.92
2023-04-30T08:15:02.783Z,1.77
2023-04-30T08:16:06.222Z,2.05
2023-04-30T08:17:09.563Z,1.70
2023-04-30T08:18:12.768Z,1.60
2023-04-30T08:19:15.813Z,1.63
2023-04-30T08:20:19.213Z,1.60
2023-04-30T08:21:22.569Z,2.05
2023-04-30T08:22:26.038Z,1.63
2023-04-30T08:23:29.277Z,2.00
2023-04-30T08:24:32.437Z,2.00
2023-04-30T08:25:36.217Z,1.60
2023-04-30T08:26:39.287Z,1.77
2023-04-30T08:27:42.502Z,1.60
2023-04-30T08:28:45.634Z,1.27
2023-04-30T08:29:49.115Z,1.58
2023-04-30T08:30:52.329Z,1.63
2023-04-30T08:31:55.556Z,1.48
2023-04-30T08:32:59.287Z,1.50
2023-04-30T08:34:02.668Z,1.40
2023-04-30T08:35:07.724Z,1.40
2023-04-30T08:36:11.170Z,1.55
2023-04-30T08:37:14.425Z,1.50
2023-04-30T08:38:18.704Z,1.20
2023-04-30T08:39:22.215Z,1.58
2023-04-30T08:40:38.670Z,1.63
2023-04-30T08:41:56.437Z,1.00
2023-04-30T08:43:10.124Z,1.13
2023-04-30T08:44:13.622Z,1.67
2023-04-30T08:45:18.290Z,1.50
2023-04-30T08:46:23.372Z,1.20
2023-04-30T08:47:27.921Z,1.50
2023-04-30T08:48:31.936Z,1.52
2023-04-30T08:49:37.095Z,1.20
2023-04-30T08:50:40.592Z,1.30
2023-04-30T08:51:44.196Z,1.50
2023-04-30T08:52:47.417Z,1.65
2023-04-30T08:53:51.416Z,1.63
2023-04-30T08:54:57.528Z,1.60
2023-04-30T08:56:00.996Z,1.10
2023-04-30T08:57:04.759Z,1.38
2023-04-30T08:58:10.592Z,1.50
2023-04-30T08:59:14.412Z,1.20
2023-04-30T09:00:20.447Z,1.13
2023-04-30T09:01:25.055Z,1.33
2023-04-30T09:02:28.389Z,1.48
2023-04-30T09:03:32.110Z,1.02
2023-04-30T09:04:37.963Z,1.30
2023-04-30T09:05:41.841Z,1.23
2023-04-30T09:06:44.980Z,1.15
2023-04-30T09:08:02.573Z,1.02
2023-04-30T09:09:15.227Z,1.10
2023-04-30T09:10:21.369Z,0.75
2023-04-30T09:11:30.624Z,1.25
2023-04-30T09:12:36.425Z,1.27
2023-04-30T09:13:42.234Z,1.02
2023-04-30T09:15:09.258Z,0.88
2023-04-30T09:16:12.679Z,1.00
2023-04-30T09:17:23.248Z,1.05
2023-04-30T09:18:26.500Z,1.10
2023-04-30T09:19:31.387Z,0.90
2023-04-30T09:20:35.519Z,1.23
2023-04-30T09:21:38.692Z,1.33
2023-04-30T09:22:43.044Z,1.08
2023-04-30T09:23:57.016Z,1.30
2023-04-30T09:25:02.602Z,0.93
2023-04-30T09:26:05.730Z,0.90
2023-04-30T09:27:23.066Z,0.98
2023-04-30T09:28:27.426Z,0.90
2023-04-30T09:29:37.839Z,0.77
2023-04-30T09:31:47.644Z,0.90
2023-04-30T09:32:57.120Z,1.00
2023-04-30T09:34:00.461Z,0.80
2023-04-30T09:35:03.555Z,1.20
2023-04-30T09:36:10.545Z,1.02
2023-04-30T09:37:16.024Z,0.85
2023-04-30T09:38:30.416Z,1.08
2023-04-30T09:39:34.396Z,0.80
2023-04-30T09:40:40.792Z,0.68
2023-04-30T09:41:44.249Z,1.27
2023-04-30T09:43:00.742Z,0.80
2023-04-30T09:44:04.250Z,1.02
2023-04-30T09:45:11.361Z,1.13
2023-04-30T09:46:15.246Z,0.88
2023-04-30T09:47:21.179Z,0.45
2023-04-30T09:48:29.926Z,0.63
2023-04-30T09:49:37.621Z,0.90
2023-04-30T09:50:43.470Z,1.08
2023-04-30T09:51:56.809Z,0.80
2023-04-30T09:53:08.829Z,0.80
2023-04-30T09:54:14.609Z,0.73
2023-04-30T09:55:18.393Z,0.80
2023-04-30T09:56:26.864Z,1.13
2023-04-30T09:57:32.455Z,0.80
2023-04-30T09:58:38.593Z,0.82
2023-04-30T09:59:47.062Z,0.75
2023-04-30T10:00:52.824Z,0.70
2023-04-30T10:01:58.572Z,0.77
2023-04-30T10:03:10.956Z,0.80
2023-04-30T10:04:15.235Z,1.13
2023-04-30T10:05:19.249Z,0.80
2023-04-30T10:06:23.147Z,0.77
2023-04-30T10:07:36.388Z,0.90
2023-04-30T10:08:47.264Z,0.80
2023-04-30T10:10:08.547Z,0.98
2023-04-30T10:11:18.509Z,1.00
2023-04-30T10:13:50.850Z,1.00
2023-04-30T10:15:09.479Z,0.60
2023-04-30T10:16:36.923Z,0.70
2023-04-30T10:17:47.486Z,0.80
2023-04-30T10:18:54.081Z,0.93
2023-04-30T10:20:03.371Z,0.90
2023-04-30T10:21:13.695Z,0.90
2023-04-30T10:22:17.343Z,1.40
2023-04-30T10:23:21.978Z,0.70
2023-04-30T10:24:25.606Z,1.00
2023-04-30T10:25:29.634Z,0.98
2023-04-30T10:26:33.367Z,0.80
2023-04-30T10:27:36.996Z,0.90
2023-04-30T10:28:42.293Z,1.02
2023-04-30T10:29:46.209Z,0.50
2023-04-30T10:30:51.560Z,0.70
2023-04-30T10:31:56.573Z,1.02
2023-04-30T10:33:40.550Z,1.00
2023-04-30T10:35:13.529Z,0.90
2023-04-30T10:36:37.578Z,1.05
2023-04-30T10:37:49.614Z,0.90
2023-04-30T10:38:53.786Z,0.70
2023-04-30T10:39:57.342Z,0.70
2023-04-30T10:41:02.376Z,0.77
2023-04-30T10:42:09.991Z,0.82
2023-04-30T10:43:13.199Z,1.23
2023-04-30T10:44:22.277Z,1.48
2023-04-30T10:45:39.339Z,1.75
2023-04-30T10:46:43.063Z,1.00
2023-04-30T10:47:46.871Z,0.75
2023-04-30T10:48:53.844Z,0.88
2023-04-30T10:50:04.919Z,0.90
2023-04-30T10:51:09.334Z,0.90
2023-04-30T10:52:12.662Z,0.73
2023-04-30T10:53:19.922Z,1.10
2023-04-30T10:54:28.813Z,0.98
2023-04-30T10:55:32.848Z,1.50
2023-04-30T10:56:36.660Z,1.38
2023-04-30T10:57:44.040Z,1.02
2023-04-30T10:58:47.874Z,1.10
2023-04-30T10:59:50.845Z,0.80
2023-04-30T11:01:14.959Z,0.82
2023-04-30T11:02:18.522Z,1.00
2023-04-30T11:03:23.028Z,0.68
2023-04-30T11:04:27.154Z,0.85
2023-04-30T11:05:40.160Z,0.80
2023-04-30T11:07:10.007Z,0.80
2023-04-30T11:09:17.149Z,1.10
2023-04-30T11:10:26.300Z,1.08
2023-04-30T11:11:35.022Z,0.90
2023-04-30T11:12:48.074Z,1.20
2023-04-30T11:14:02.021Z,1.00
2023-04-30T11:15:15.936Z,0.95
2023-04-30T11:16:20.360Z,0.60
2023-04-30T11:17:25.160Z,1.10
2023-04-30T11:18:28.528Z,0.85
2023-04-30T11:19:34.822Z,1.00
2023-04-30T11:20:51.912Z,0.93
2023-04-30T11:22:04.337Z,1.15
2023-04-30T11:23:22.270Z,1.10
2023-04-30T11:25:10.348Z,0.90
2023-04-30T11:26:13.500Z,1.00
2023-04-30T11:27:25.122Z,0.85
2023-04-30T11:28:30.993Z,1.10
2023-04-30T11:29:35.234Z,0.68
2023-04-30T11:30:38.896Z,0.75
2023-04-30T11:31:42.883Z,1.10
2023-04-30T11:32:49.597Z,1.10
2023-04-30T11:33:55.622Z,1.17
2023-04-30T11:34:59.396Z,1.35
2023-04-30T11:36:03.145Z,0.70
2023-04-30T11:37:07.031Z,1.00
2023-04-30T11:38:13.077Z,0.95
2023-04-30T11:39:18.256Z,1.13
2023-04-30T11:40:22.183Z,1.17
2023-04-30T11:41:27.372Z,1.17
2023-04-30T11:42:31.497Z,1.20
2023-04-30T11:43:35.184Z,1.50
2023-04-30T11:44:38.763Z,1.38
2023-04-30T11:45:41.968Z,1.33
2023-04-30T11:46:44.968Z,1.27
2023-04-30T11:47:54.135Z,1.20
2023-04-30T11:48:58.040Z,1.38
2023-04-30T11:50:00.936Z,1.15
2023-04-30T11:51:20.343Z,1.58
2023-04-30T11:52:26.853Z,1.27
2023-04-30T11:53:29.947Z,0.90
2023-04-30T11:54:35.232Z,1.27
2023-04-30T11:55:41.940Z,1.40
2023-04-30T11:56:49.161Z,1.00
2023-04-30T11:57:56.176Z,1.20
2023-04-30T11:58:59.022Z,1.27
2023-04-30T12:00:11.435Z,1.20
2023-04-30T12:01:15.176Z,1.00
2023-04-30T12:02:18.810Z,1.45
2023-04-30T12:03:21.959Z,0.85
2023-04-30T12:04:26.295Z,1.25
2023-04-30T12:05:29.276Z,1.10
2023-04-30T12:06:32.940Z,1.63
2023-04-30T12:07:35.876Z,0.98
2023-04-30T12:08:40.874Z,1.30
2023-04-30T12:09:57.233Z,1.30
2023-04-30T12:11:00.588Z,1.55
2023-04-30T12:12:04.113Z,1.35
2023-04-30T12:13:07.046Z,1.30
2023-04-30T12:14:11.448Z,1.27
2023-04-30T12:15:26.341Z,1.38
2023-04-30T12:16:51.123Z,1.25
2023-04-30T12:17:57.610Z,1.02
2023-04-30T12:19:00.974Z,1.27
2023-04-30T12:20:05.274Z,1.08
2023-04-30T12:21:09.675Z,0.93
2023-04-30T12:22:12.639Z,1.05
2023-04-30T12:23:15.607Z,0.90
2023-04-30T12:24:20.061Z,1.20
2023-04-30T12:25:24.337Z,1.50
2023-04-30T12:26:40.308Z,0.80
2023-04-30T12:27:47.445Z,1.10
2023-04-30T12:28:52.741Z,1.40
2023-04-30T12:29:56.611Z,1.30
2023-04-30T12:30:59.994Z,1.08
2023-04-30T12:32:03.607Z,1.25
2023-04-30T12:33:10.333Z,1.08
2023-04-30T12:34:15.100Z,1.17
2023-04-30T12:35:23.537Z,0.93
2023-04-30T12:36:34.195Z,1.40
2023-04-30T12:38:44.685Z,0.90
2023-04-30T12:39:47.787Z,1.33
2023-04-30T12:40:50.732Z,0.98
2023-04-30T12:41:53.529Z,1.20
2023-04-30T12:43:06.424Z,1.20
2023-04-30T12:44:25.572Z,1.20
2023-04-30T12:45:53.361Z,1.23
2023-04-30T12:47:01.016Z,1.25
2023-04-30T12:48:04.276Z,1.50
2023-04-30T12:49:07.211Z,1.13
2023-04-30T12:50:15.147Z,1.25
2023-04-30T12:51:20.640Z,1.42
2023-04-30T12:52:26.988Z,1.48
2023-04-30T12:53:30.303Z,1.02
2023-04-30T12:54:34.646Z,1.50
2023-04-30T12:55:39.475Z,1.10
2023-04-30T12:57:01.535Z,0.95
2023-04-30T12:58:13.131Z,1.10
2023-04-30T12:59:17.302Z,1.25
2023-04-30T13:00:20.174Z,1.15
2023-04-30T13:01:25.338Z,1.13
2023-04-30T13:02:32.106Z,1.20
2023-04-30T13:03:35.399Z,1.23
2023-04-30T13:04:39.706Z,0.90
2023-04-30T13:05:46.230Z,1.10
2023-04-30T13:06:49.713Z,1.05
2023-04-30T13:07:56.056Z,1.38
2023-04-30T13:08:59.255Z,1.25
2023-04-30T13:10:02.498Z,0.93
2023-04-30T13:11:05.707Z,1.17
2023-04-30T13:12:09.085Z,1.02
2023-04-30T13:13:14.111Z,1.10
2023-04-30T13:14:17.882Z,1.02
2023-04-30T13:15:20.918Z,0.80
2023-04-30T13:16:25.102Z,1.60
2023-04-30T13:17:28.941Z,0.95
2023-04-30T13:18:33.111Z,1.27
2023-04-30T13:19:36.178Z,1.10
2023-04-30T13:20:39.774Z,1.40
2023-04-30T13:21:42.819Z,1.00
2023-04-30T13:22:46.178Z,0.93
2023-04-30T13:23:53.734Z,1.30
2023-04-30T13:24:57.316Z,1.65
2023-04-30T13:26:00.256Z,1.15
2023-04-30T13:27:04.158Z,1.00
2023-04-30T13:28:07.334Z,1.02
2023-04-30T13:29:10.281Z,1.00
2023-04-30T13:30:13.336Z,0.98
2023-04-30T13:31:18.693Z,1.00
2023-04-30T13:32:21.670Z,1.42
2023-04-30T13:33:24.583Z,0.95
2023-04-30T13:34:27.577Z,1.23
2023-04-30T13:35:30.515Z,1.00
2023-04-30T13:36:34.040Z,0.90
2023-04-30T13:37:37.017Z,0.88
2023-04-30T13:38:40.113Z,1.02
2023-04-30T13:39:43.412Z,0.90
2023-04-30T13:40:47.813Z,1.02
2023-04-30T13:41:50.996Z,0.73
2023-04-30T13:42:53.933Z,0.70
2023-04-30T13:43:57.018Z,0.90
2023-04-30T13:44:59.927Z,1.10
2023-04-30T13:46:03.408Z,0.80
2023-04-30T13:47:07.737Z,1.20
2023-04-30T13:48:11.066Z,1.17
2023-04-30T13:49:14.199Z,0.70
2023-04-30T13:50:17.194Z,0.93
2023-04-30T13:51:21.060Z,1.35
2023-04-30T13:52:24.265Z,0.80
2023-04-30T13:53:27.583Z,1.20
2023-04-30T13:54:30.617Z,0.80
2023-04-30T13:55:33.666Z,1.10
2023-04-30T13:56:36.746Z,1.10
2023-04-30T13:57:41.005Z,0.82
2023-04-30T13:58:44.159Z,0.90
2023-04-30T13:59:47.367Z,1.02
2023-04-30T14:00:50.513Z,0.80
2023-04-30T14:01:53.529Z,1.10
2023-04-30T14:02:56.516Z,1.25
2023-04-30T14:03:59.680Z,0.90
2023-04-30T14:05:06.665Z,1.08
2023-04-30T14:06:10.724Z,0.82
2023-04-30T14:07:13.839Z,1.10
2023-04-30T14:08:17.077Z,1.13
2023-04-30T14:09:19.996Z,0.73
2023-04-30T14:10:22.894Z,1.30
2023-04-30T14:11:27.671Z,1.45
2023-04-30T14:12:30.870Z,1.02
2023-04-30T14:13:33.931Z,0.73
2023-04-30T14:14:39.198Z,1.17
2023-04-30T14:15:42.627Z,0.80
2023-04-30T14:16:45.894Z,0.77
2023-04-30T14:17:48.869Z,0.98
2023-04-30T14:18:51.885Z,1.55
2023-04-30T14:19:55.045Z,1.02
2023-04-30T14:20:58.189Z,1.42
2023-04-30T14:22:01.323Z,0.90
2023-04-30T14:23:04.265Z,0.80
2023-04-30T14:24:07.742Z,0.85
2023-04-30T14:25:11.105Z,1.45
2023-04-30T14:26:14.503Z,1.67
2023-04-30T14:27:17.393Z,1.35
2023-04-30T14:28:20.849Z,0.88
2023-04-30T14:29:23.707Z,1.40
2023-04-30T14:30:26.843Z,1.10
2023-04-30T14:31:29.904Z,1.30
2023-04-30T14:32:33.000Z,1.25
2023-04-30T14:33:35.880Z,1.75
2023-04-30T14:34:38.751Z,1.10
2023-04-30T14:35:41.919Z,0.98
2023-04-30T14:36:44.975Z,1.05
2023-04-30T14:37:48.087Z,1.30
2023-04-30T14:38:50.948Z,1.20